sensor_id;sensor_type;location;lat;lon;timestamp;temperature;humidity
2603;DHT22;1311;47.966;7.958;2022-07-29T00:01:26;18.20;99.90
2603;DHT22;1311;47.966;7.958;2022-07-29T00:03:52;18.10;99.90
2603;DHT22;1311;47.966;7.958;2022-07-29T00:06:19;18.20;99.90
2603;DHT22;1311;47.966;7.958;2022-07-29T00:08:46;18.10;99.90
2603;DHT22;1311;47.966;7.958;2022-07-29T00:11:14;18.10;99.90
2603;DHT22;1311;47.966;7.958;2022-07-29T00:13:41;18.00;99.90
2603;DHT22;1311;47.966;7.958;2022-07-29T00:16:08;18.00;99.90
2603;DHT22;1311;47.966;7.958;2022-07-29T00:18:34;17.90;99.90
2603;DHT22;1311;47.966;7.958;2022-07-29T00:23:28;17.90;99.90
2603;DHT22;1311;47.966;7.958;2022-07-29T00:25:55;17.90;99.90
2603;DHT22;1311;47.966;7.958;2022-07-29T00:28:23;17.80;99.90
2603;DHT22;1311;47.966;7.958;2022-07-29T00:30:50;17.70;99.90
2603;DHT22;1311;47.966;7.958;2022-07-29T00:33:17;17.70;99.90
2603;DHT22;1311;47.966;7.958;2022-07-29T00:35:43;17.70;99.90
2603;DHT22;1311;47.966;7.958;2022-07-29T00:38:09;17.80;99.90
2603;DHT22;1311;47.966;7.958;2022-07-29T00:40:36;17.80;99.90
2603;DHT22;1311;47.966;7.958;2022-07-29T00:43:03;17.70;99.90
2603;DHT22;1311;47.966;7.958;2022-07-29T00:45:32;17.70;99.90
2603;DHT22;1311;47.966;7.958;2022-07-29T00:47:58;17.70;99.90
2603;DHT22;1311;47.966;7.958;2022-07-29T00:55:20;17.60;99.90
2603;DHT22;1311;47.966;7.958;2022-07-29T00:57:47;17.70;99.90
2603;DHT22;1311;47.966;7.958;2022-07-29T01:00:17;17.60;99.90
2603;DHT22;1311;47.966;7.958;2022-07-29T01:02:45;17.50;99.90
2603;DHT22;1311;47.966;7.958;2022-07-29T01:05:15;17.50;99.90
2603;DHT22;1311;47.966;7.958;2022-07-29T01:07:42;17.50;99.90
2603;DHT22;1311;47.966;7.958;2022-07-29T01:10:12;17.50;99.90
2603;DHT22;1311;47.966;7.958;2022-07-29T01:12:40;17.50;99.90
2603;DHT22;1311;47.966;7.958;2022-07-29T01:15:08;17.40;99.90
2603;DHT22;1311;47.966;7.958;2022-07-29T01:17:41;17.40;99.90
2603;DHT22;1311;47.966;7.958;2022-07-29T01:20:14;17.40;99.90
2603;DHT22;1311;47.966;7.958;2022-07-29T01:23:13;17.30;99.90
2603;DHT22;1311;47.966;7.958;2022-07-29T01:26:00;17.40;99.90
2603;DHT22;1311;47.966;7.958;2022-07-29T01:28:58;17.30;99.90
2603;DHT22;1311;47.966;7.958;2022-07-29T01:31:31;17.30;99.90
2603;DHT22;1311;47.966;7.958;2022-07-29T01:34:03;17.40;99.90
2603;DHT22;1311;47.966;7.958;2022-07-29T01:36:33;17.20;99.90
2603;DHT22;1311;47.966;7.958;2022-07-29T01:39:06;17.20;99.90
2603;DHT22;1311;47.966;7.958;2022-07-29T01:41:37;17.30;99.90
2603;DHT22;1311;47.966;7.958;2022-07-29T01:44:12;17.10;99.90
2603;DHT22;1311;47.966;7.958;2022-07-29T01:46:45;17.10;99.90
2603;DHT22;1311;47.966;7.958;2022-07-29T01:49:17;17.10;99.90
2603;DHT22;1311;47.966;7.958;2022-07-29T01:51:49;17.10;99.90
2603;DHT22;1311;47.966;7.958;2022-07-29T01:54:21;17.20;99.90
2603;DHT22;1311;47.966;7.958;2022-07-29T01:56:53;17.10;99.90
2603;DHT22;1311;47.966;7.958;2022-07-29T01:59:21;17.00;99.90
2603;DHT22;1311;47.966;7.958;2022-07-29T02:01:52;17.10;99.90
2603;DHT22;1311;47.966;7.958;2022-07-29T02:04:20;17.10;99.90
2603;DHT22;1311;47.966;7.958;2022-07-29T02:06:49;17.10;99.90
2603;DHT22;1311;47.966;7.958;2022-07-29T02:09:17;17.10;99.90
2603;DHT22;1311;47.966;7.958;2022-07-29T02:11:49;17.00;99.90
2603;DHT22;1311;47.966;7.958;2022-07-29T02:14:18;17.00;99.90
2603;DHT22;1311;47.966;7.958;2022-07-29T02:16:51;17.00;99.90
2603;DHT22;1311;47.966;7.958;2022-07-29T02:19:21;17.30;99.90
2603;DHT22;1311;47.966;7.958;2022-07-29T02:21:51;17.00;99.90
2603;DHT22;1311;47.966;7.958;2022-07-29T02:24:20;17.00;99.90
2603;DHT22;1311;47.966;7.958;2022-07-29T02:26:49;17.40;99.90
2603;DHT22;1311;47.966;7.958;2022-07-29T02:29:19;17.00;99.90
2603;DHT22;1311;47.966;7.958;2022-07-29T02:31:49;17.10;99.90
2603;DHT22;1311;47.966;7.958;2022-07-29T02:34:18;17.00;99.90
2603;DHT22;1311;47.966;7.958;2022-07-29T02:36:46;16.90;99.90
2603;DHT22;1311;47.966;7.958;2022-07-29T02:39:15;16.90;99.90
2603;DHT22;1311;47.966;7.958;2022-07-29T02:41:45;16.90;99.90
2603;DHT22;1311;47.966;7.958;2022-07-29T02:44:14;17.00;99.90
2603;DHT22;1311;47.966;7.958;2022-07-29T02:46:45;16.80;99.90
2603;DHT22;1311;47.966;7.958;2022-07-29T02:49:17;16.80;99.90
2603;DHT22;1311;47.966;7.958;2022-07-29T02:51:49;17.00;99.90
2603;DHT22;1311;47.966;7.958;2022-07-29T02:54:25;16.80;99.90
2603;DHT22;1311;47.966;7.958;2022-07-29T02:56:53;16.80;99.90
2603;DHT22;1311;47.966;7.958;2022-07-29T02:59:25;16.70;99.90
2603;DHT22;1311;47.966;7.958;2022-07-29T03:01:54;17.30;99.90
2603;DHT22;1311;47.966;7.958;2022-07-29T03:04:24;16.80;99.90
2603;DHT22;1311;47.966;7.958;2022-07-29T03:06:53;16.80;99.90
2603;DHT22;1311;47.966;7.958;2022-07-29T03:09:22;16.80;99.90
2603;DHT22;1311;47.966;7.958;2022-07-29T03:11:49;16.90;99.90
2603;DHT22;1311;47.966;7.958;2022-07-29T03:14:17;16.90;99.90
2603;DHT22;1311;47.966;7.958;2022-07-29T03:16:45;16.90;99.90
2603;DHT22;1311;47.966;7.958;2022-07-29T03:19:12;16.80;99.90
2603;DHT22;1311;47.966;7.958;2022-07-29T03:21:40;16.70;99.90
2603;DHT22;1311;47.966;7.958;2022-07-29T03:26:34;16.60;99.90
2603;DHT22;1311;47.966;7.958;2022-07-29T03:29:03;17.50;99.90
2603;DHT22;1311;47.966;7.958;2022-07-29T03:31:29;16.60;99.90
2603;DHT22;1311;47.966;7.958;2022-07-29T03:33:56;16.70;99.90
2603;DHT22;1311;47.966;7.958;2022-07-29T03:36:23;16.60;99.90
2603;DHT22;1311;47.966;7.958;2022-07-29T03:38:52;16.60;99.90
2603;DHT22;1311;47.966;7.958;2022-07-29T03:41:22;16.50;99.90
2603;DHT22;1311;47.966;7.958;2022-07-29T03:43:51;16.50;99.90
2603;DHT22;1311;47.966;7.958;2022-07-29T03:46:20;16.40;99.90
2603;DHT22;1311;47.966;7.958;2022-07-29T03:48:52;16.50;99.90
2603;DHT22;1311;47.966;7.958;2022-07-29T03:51:21;16.50;99.90
2603;DHT22;1311;47.966;7.958;2022-07-29T03:53:48;16.50;99.90
2603;DHT22;1311;47.966;7.958;2022-07-29T03:56:17;16.40;99.90
2603;DHT22;1311;47.966;7.958;2022-07-29T03:58:46;16.50;99.90
2603;DHT22;1311;47.966;7.958;2022-07-29T04:01:15;16.60;99.90
2603;DHT22;1311;47.966;7.958;2022-07-29T04:03:43;16.60;99.90
2603;DHT22;1311;47.966;7.958;2022-07-29T04:06:11;16.60;99.90
2603;DHT22;1311;47.966;7.958;2022-07-29T04:08:38;16.90;99.90
2603;DHT22;1311;47.966;7.958;2022-07-29T04:11:05;16.50;99.90
2603;DHT22;1311;47.966;7.958;2022-07-29T04:13:34;16.60;99.90
2603;DHT22;1311;47.966;7.958;2022-07-29T04:16:01;16.70;99.90
2603;DHT22;1311;47.966;7.958;2022-07-29T04:18:28;16.80;99.90
2603;DHT22;1311;47.966;7.958;2022-07-29T04:28:16;16.90;99.90
2603;DHT22;1311;47.966;7.958;2022-07-29T04:30:44;17.00;99.90
2603;DHT22;1311;47.966;7.958;2022-07-29T04:33:10;16.90;99.90
2603;DHT22;1311;47.966;7.958;2022-07-29T04:35:38;17.10;99.90
2603;DHT22;1311;47.966;7.958;2022-07-29T04:38:05;17.20;99.90
2603;DHT22;1311;47.966;7.958;2022-07-29T04:40:33;17.30;99.90
2603;DHT22;1311;47.966;7.958;2022-07-29T04:43:00;17.30;99.90
2603;DHT22;1311;47.966;7.958;2022-07-29T04:45:27;17.50;99.90
2603;DHT22;1311;47.966;7.958;2022-07-29T04:47:55;17.60;99.90
2603;DHT22;1311;47.966;7.958;2022-07-29T04:50:22;17.60;99.90
2603;DHT22;1311;47.966;7.958;2022-07-29T04:52:49;17.60;99.90
2603;DHT22;1311;47.966;7.958;2022-07-29T04:55:16;17.70;99.90
2603;DHT22;1311;47.966;7.958;2022-07-29T04:57:42;17.70;99.90
2603;DHT22;1311;47.966;7.958;2022-07-29T05:00:10;17.80;99.90
2603;DHT22;1311;47.966;7.958;2022-07-29T05:02:37;17.80;99.90
2603;DHT22;1311;47.966;7.958;2022-07-29T05:05:05;17.90;99.90
2603;DHT22;1311;47.966;7.958;2022-07-29T05:07:32;17.90;99.90
2603;DHT22;1311;47.966;7.958;2022-07-29T05:09:59;18.30;99.90
2603;DHT22;1311;47.966;7.958;2022-07-29T05:12:26;18.40;99.90
2603;DHT22;1311;47.966;7.958;2022-07-29T05:17:20;18.50;99.90
2603;DHT22;1311;47.966;7.958;2022-07-29T05:19:47;18.40;99.90
2603;DHT22;1311;47.966;7.958;2022-07-29T05:22:17;18.50;99.90
2603;DHT22;1311;47.966;7.958;2022-07-29T05:24:44;18.50;99.90
2603;DHT22;1311;47.966;7.958;2022-07-29T05:27:10;18.40;99.90
2603;DHT22;1311;47.966;7.958;2022-07-29T05:32:05;18.60;99.90
2603;DHT22;1311;47.966;7.958;2022-07-29T05:34:32;18.70;99.90
2603;DHT22;1311;47.966;7.958;2022-07-29T05:36:58;18.60;99.90
2603;DHT22;1311;47.966;7.958;2022-07-29T05:39:26;18.70;99.90
2603;DHT22;1311;47.966;7.958;2022-07-29T05:41:53;18.90;99.90
2603;DHT22;1311;47.966;7.958;2022-07-29T05:44:20;19.60;99.90
2603;DHT22;1311;47.966;7.958;2022-07-29T05:46:47;20.20;99.90
2603;DHT22;1311;47.966;7.958;2022-07-29T05:49:13;20.70;99.90
2603;DHT22;1311;47.966;7.958;2022-07-29T05:51:40;20.70;99.90
2603;DHT22;1311;47.966;7.958;2022-07-29T05:54:07;21.10;99.90
2603;DHT22;1311;47.966;7.958;2022-07-29T05:56:35;21.90;99.90
2603;DHT22;1311;47.966;7.958;2022-07-29T05:59:02;22.90;99.90
2603;DHT22;1311;47.966;7.958;2022-07-29T06:01:29;23.40;99.90
2603;DHT22;1311;47.966;7.958;2022-07-29T06:03:56;23.70;99.90
2603;DHT22;1311;47.966;7.958;2022-07-29T06:06:23;24.00;99.90
2603;DHT22;1311;47.966;7.958;2022-07-29T06:08:50;23.90;99.90
2603;DHT22;1311;47.966;7.958;2022-07-29T06:11:17;23.80;99.90
2603;DHT22;1311;47.966;7.958;2022-07-29T06:13:45;23.90;99.90
2603;DHT22;1311;47.966;7.958;2022-07-29T06:16:12;24.10;99.90
2603;DHT22;1311;47.966;7.958;2022-07-29T06:18:38;24.30;99.90
2603;DHT22;1311;47.966;7.958;2022-07-29T06:21:07;24.60;99.90
2603;DHT22;1311;47.966;7.958;2022-07-29T06:23:35;24.30;99.90
2603;DHT22;1311;47.966;7.958;2022-07-29T06:26:02;24.20;99.90
2603;DHT22;1311;47.966;7.958;2022-07-29T06:28:28;24.00;99.90
2603;DHT22;1311;47.966;7.958;2022-07-29T06:30:57;23.80;99.90
2603;DHT22;1311;47.966;7.958;2022-07-29T06:35:51;24.20;99.90
2603;DHT22;1311;47.966;7.958;2022-07-29T06:38:17;24.20;99.90
2603;DHT22;1311;47.966;7.958;2022-07-29T06:40:45;24.20;99.90
2603;DHT22;1311;47.966;7.958;2022-07-29T06:43:29;24.10;99.90
2603;DHT22;1311;47.966;7.958;2022-07-29T06:45:59;24.10;99.90
2603;DHT22;1311;47.966;7.958;2022-07-29T06:48:27;24.10;99.90
2603;DHT22;1311;47.966;7.958;2022-07-29T06:50:54;24.00;99.90
2603;DHT22;1311;47.966;7.958;2022-07-29T06:53:21;24.10;99.90
2603;DHT22;1311;47.966;7.958;2022-07-29T06:55:48;24.10;99.90
2603;DHT22;1311;47.966;7.958;2022-07-29T06:58:15;23.90;99.90
2603;DHT22;1311;47.966;7.958;2022-07-29T07:03:14;23.80;99.90
2603;DHT22;1311;47.966;7.958;2022-07-29T07:05:41;23.80;99.90
2603;DHT22;1311;47.966;7.958;2022-07-29T07:08:08;23.80;99.90
2603;DHT22;1311;47.966;7.958;2022-07-29T07:10:35;23.90;99.90
2603;DHT22;1311;47.966;7.958;2022-07-29T07:15:30;24.20;99.90
2603;DHT22;1311;47.966;7.958;2022-07-29T07:20:25;24.30;99.90
2603;DHT22;1311;47.966;7.958;2022-07-29T07:22:52;24.20;99.90
2603;DHT22;1311;47.966;7.958;2022-07-29T07:25:19;24.20;99.90
2603;DHT22;1311;47.966;7.958;2022-07-29T07:27:46;24.30;99.90
2603;DHT22;1311;47.966;7.958;2022-07-29T07:32:40;24.20;99.90
2603;DHT22;1311;47.966;7.958;2022-07-29T07:35:08;24.10;99.90
2603;DHT22;1311;47.966;7.958;2022-07-29T07:37:37;23.80;99.90
2603;DHT22;1311;47.966;7.958;2022-07-29T07:40:05;23.80;99.90
2603;DHT22;1311;47.966;7.958;2022-07-29T07:44:59;23.80;99.90
2603;DHT22;1311;47.966;7.958;2022-07-29T07:47:26;23.90;99.90
2603;DHT22;1311;47.966;7.958;2022-07-29T07:49:53;24.00;99.90
2603;DHT22;1311;47.966;7.958;2022-07-29T07:52:21;24.00;99.90
2603;DHT22;1311;47.966;7.958;2022-07-29T07:54:49;24.00;99.90
2603;DHT22;1311;47.966;7.958;2022-07-29T07:57:17;24.00;99.90
2603;DHT22;1311;47.966;7.958;2022-07-29T08:02:10;23.90;99.90
2603;DHT22;1311;47.966;7.958;2022-07-29T08:07:06;24.00;99.90
2603;DHT22;1311;47.966;7.958;2022-07-29T08:09:34;23.90;99.90
2603;DHT22;1311;47.966;7.958;2022-07-29T08:12:03;23.80;99.90
2603;DHT22;1311;47.966;7.958;2022-07-29T08:14:31;23.80;99.90
2603;DHT22;1311;47.966;7.958;2022-07-29T08:19:25;24.00;99.90
2603;DHT22;1311;47.966;7.958;2022-07-29T08:21:53;24.00;99.90
2603;DHT22;1311;47.966;7.958;2022-07-29T08:24:20;24.00;99.90
2603;DHT22;1311;47.966;7.958;2022-07-29T08:27:06;24.10;99.90
2603;DHT22;1311;47.966;7.958;2022-07-29T08:29:32;24.20;99.90
2603;DHT22;1311;47.966;7.958;2022-07-29T08:34:29;24.60;99.90
2603;DHT22;1311;47.966;7.958;2022-07-29T08:39:23;24.70;99.90
2603;DHT22;1311;47.966;7.958;2022-07-29T08:44:19;25.10;99.90
2603;DHT22;1311;47.966;7.958;2022-07-29T08:46:47;25.20;99.90
2603;DHT22;1311;47.966;7.958;2022-07-29T08:49:15;25.40;99.90
2603;DHT22;1311;47.966;7.958;2022-07-29T08:51:42;25.60;99.90
2603;DHT22;1311;47.966;7.958;2022-07-29T08:54:09;25.60;99.90
2603;DHT22;1311;47.966;7.958;2022-07-29T08:56:38;25.60;99.90
2603;DHT22;1311;47.966;7.958;2022-07-29T08:59:08;25.50;99.90
2603;DHT22;1311;47.966;7.958;2022-07-29T09:01:38;25.50;99.90
2603;DHT22;1311;47.966;7.958;2022-07-29T09:04:10;25.50;99.90
2603;DHT22;1311;47.966;7.958;2022-07-29T09:06:42;25.60;99.90
2603;DHT22;1311;47.966;7.958;2022-07-29T09:09:09;25.70;99.90
2603;DHT22;1311;47.966;7.958;2022-07-29T09:11:36;25.70;99.90
2603;DHT22;1311;47.966;7.958;2022-07-29T09:16:56;25.90;99.90
2603;DHT22;1311;47.966;7.958;2022-07-29T09:19:25;25.70;99.90
2603;DHT22;1311;47.966;7.958;2022-07-29T09:21:54;25.50;99.90
2603;DHT22;1311;47.966;7.958;2022-07-29T09:24:42;25.60;99.90
2603;DHT22;1311;47.966;7.958;2022-07-29T09:27:20;25.50;99.90
2603;DHT22;1311;47.966;7.958;2022-07-29T09:29:54;25.50;99.90
2603;DHT22;1311;47.966;7.958;2022-07-29T09:32:23;25.80;99.90
2603;DHT22;1311;47.966;7.958;2022-07-29T09:34:49;25.90;99.90
2603;DHT22;1311;47.966;7.958;2022-07-29T09:37:26;26.10;99.90
2603;DHT22;1311;47.966;7.958;2022-07-29T09:42:28;26.30;99.90
2603;DHT22;1311;47.966;7.958;2022-07-29T09:44:55;26.30;99.90
2603;DHT22;1311;47.966;7.958;2022-07-29T09:47:41;26.10;99.90
2603;DHT22;1311;47.966;7.958;2022-07-29T09:50:08;26.10;99.90
2603;DHT22;1311;47.966;7.958;2022-07-29T09:52:45;26.20;99.90
2603;DHT22;1311;47.966;7.958;2022-07-29T09:57:39;26.20;99.90
2603;DHT22;1311;47.966;7.958;2022-07-29T10:00:08;26.20;99.90
2603;DHT22;1311;47.966;7.958;2022-07-29T10:02:38;26.20;99.90
2603;DHT22;1311;47.966;7.958;2022-07-29T10:05:08;26.20;99.90
2603;DHT22;1311;47.966;7.958;2022-07-29T10:07:46;26.30;99.90
2603;DHT22;1311;47.966;7.958;2022-07-29T10:10:20;26.40;99.90
2603;DHT22;1311;47.966;7.958;2022-07-29T10:12:52;26.30;99.90
2603;DHT22;1311;47.966;7.958;2022-07-29T10:15:22;26.30;99.90
2603;DHT22;1311;47.966;7.958;2022-07-29T10:17:50;26.30;99.90
2603;DHT22;1311;47.966;7.958;2022-07-29T10:20:17;26.30;99.90
2603;DHT22;1311;47.966;7.958;2022-07-29T10:25:12;26.50;99.90
2603;DHT22;1311;47.966;7.958;2022-07-29T10:27:40;26.50;99.90
2603;DHT22;1311;47.966;7.958;2022-07-29T10:30:09;26.60;99.90
2603;DHT22;1311;47.966;7.958;2022-07-29T10:32:48;26.60;99.90
2603;DHT22;1311;47.966;7.958;2022-07-29T10:35:41;26.70;99.90
2603;DHT22;1311;47.966;7.958;2022-07-29T10:38:27;26.80;99.90
2603;DHT22;1311;47.966;7.958;2022-07-29T10:41:05;27.00;99.90
2603;DHT22;1311;47.966;7.958;2022-07-29T10:43:56;27.20;99.90
2603;DHT22;1311;47.966;7.958;2022-07-29T10:46:25;27.30;99.90
2603;DHT22;1311;47.966;7.958;2022-07-29T10:49:05;27.20;99.90
2603;DHT22;1311;47.966;7.958;2022-07-29T10:51:58;27.40;99.90
2603;DHT22;1311;47.966;7.958;2022-07-29T10:54:47;27.40;99.90
2603;DHT22;1311;47.966;7.958;2022-07-29T10:57:18;27.40;99.90
2603;DHT22;1311;47.966;7.958;2022-07-29T10:59:47;27.60;99.90
2603;DHT22;1311;47.966;7.958;2022-07-29T11:02:45;27.60;99.90
2603;DHT22;1311;47.966;7.958;2022-07-29T11:05:17;27.60;99.90
2603;DHT22;1311;47.966;7.958;2022-07-29T11:08:21;27.70;99.90
2603;DHT22;1311;47.966;7.958;2022-07-29T11:10:50;27.60;99.90
2603;DHT22;1311;47.966;7.958;2022-07-29T11:13:48;27.60;99.90
2603;DHT22;1311;47.966;7.958;2022-07-29T11:16:17;27.50;99.90
2603;DHT22;1311;47.966;7.958;2022-07-29T11:19:19;27.50;99.90
2603;DHT22;1311;47.966;7.958;2022-07-29T11:21:46;27.40;99.40
2603;DHT22;1311;47.966;7.958;2022-07-29T11:24:18;27.50;99.90
2603;DHT22;1311;47.966;7.958;2022-07-29T11:27:06;27.60;99.70
2603;DHT22;1311;47.966;7.958;2022-07-29T11:29:35;27.40;99.30
2603;DHT22;1311;47.966;7.958;2022-07-29T11:32:12;27.50;99.90
2603;DHT22;1311;47.966;7.958;2022-07-29T11:34:40;27.40;99.50
2603;DHT22;1311;47.966;7.958;2022-07-29T11:37:25;27.20;99.70
2603;DHT22;1311;47.966;7.958;2022-07-29T11:40:14;27.10;99.90
2603;DHT22;1311;47.966;7.958;2022-07-29T11:42:44;27.00;99.90
2603;DHT22;1311;47.966;7.958;2022-07-29T11:45:13;27.00;99.90
2603;DHT22;1311;47.966;7.958;2022-07-29T11:47:48;26.90;99.90
2603;DHT22;1311;47.966;7.958;2022-07-29T11:50:18;26.70;99.90
2603;DHT22;1311;47.966;7.958;2022-07-29T11:55:22;26.60;99.90
2603;DHT22;1311;47.966;7.958;2022-07-29T11:57:51;26.70;99.90
2603;DHT22;1311;47.966;7.958;2022-07-29T12:00:23;26.60;99.90
2603;DHT22;1311;47.966;7.958;2022-07-29T12:10:12;26.80;99.90
2603;DHT22;1311;47.966;7.958;2022-07-29T12:12:40;26.80;99.30
2603;DHT22;1311;47.966;7.958;2022-07-29T12:15:12;27.00;99.60
2603;DHT22;1311;47.966;7.958;2022-07-29T12:22:35;27.00;98.30
2603;DHT22;1311;47.966;7.958;2022-07-29T12:25:06;26.80;99.00
2603;DHT22;1311;47.966;7.958;2022-07-29T12:27:35;26.90;99.70
2603;DHT22;1311;47.966;7.958;2022-07-29T12:30:06;26.70;99.20
2603;DHT22;1311;47.966;7.958;2022-07-29T12:32:34;26.70;99.20
2603;DHT22;1311;47.966;7.958;2022-07-29T12:35:05;26.70;99.00
2603;DHT22;1311;47.966;7.958;2022-07-29T12:37:33;26.70;99.40
2603;DHT22;1311;47.966;7.958;2022-07-29T12:40:01;26.60;99.00
2603;DHT22;1311;47.966;7.958;2022-07-29T12:42:28;26.60;99.10
2603;DHT22;1311;47.966;7.958;2022-07-29T12:47:23;26.70;99.00
2603;DHT22;1311;47.966;7.958;2022-07-29T12:49:50;26.80;98.90
2603;DHT22;1311;47.966;7.958;2022-07-29T12:52:34;26.80;99.10
2603;DHT22;1311;47.966;7.958;2022-07-29T12:55:01;26.90;98.90
2603;DHT22;1311;47.966;7.958;2022-07-29T13:00:03;26.70;98.50
2603;DHT22;1311;47.966;7.958;2022-07-29T13:02:32;26.80;98.70
2603;DHT22;1311;47.966;7.958;2022-07-29T13:05:00;26.60;98.30
2603;DHT22;1311;47.966;7.958;2022-07-29T13:07:31;26.70;98.80
2603;DHT22;1311;47.966;7.958;2022-07-29T13:10:11;26.70;99.30
2603;DHT22;1311;47.966;7.958;2022-07-29T13:12:40;26.80;99.80
2603;DHT22;1311;47.966;7.958;2022-07-29T13:15:26;26.80;99.30
2603;DHT22;1311;47.966;7.958;2022-07-29T13:17:54;27.00;99.30
2603;DHT22;1311;47.966;7.958;2022-07-29T13:20:24;27.10;99.60
2603;DHT22;1311;47.966;7.958;2022-07-29T13:22:53;27.10;98.90
2603;DHT22;1311;47.966;7.958;2022-07-29T13:25:24;27.10;98.20
2603;DHT22;1311;47.966;7.958;2022-07-29T13:27:51;27.20;98.50
2603;DHT22;1311;47.966;7.958;2022-07-29T13:30:20;27.30;97.80
2603;DHT22;1311;47.966;7.958;2022-07-29T13:32:47;27.30;97.60
2603;DHT22;1311;47.966;7.958;2022-07-29T13:35:15;27.30;97.80
2603;DHT22;1311;47.966;7.958;2022-07-29T13:40:11;27.40;95.70
2603;DHT22;1311;47.966;7.958;2022-07-29T13:42:39;27.30;94.80
2603;DHT22;1311;47.966;7.958;2022-07-29T13:45:07;27.30;94.20
2603;DHT22;1311;47.966;7.958;2022-07-29T13:50:03;27.20;93.20
2603;DHT22;1311;47.966;7.958;2022-07-29T13:52:32;27.20;93.40
2603;DHT22;1311;47.966;7.958;2022-07-29T13:57:26;27.40;92.90
2603;DHT22;1311;47.966;7.958;2022-07-29T14:02:21;27.50;92.30
2603;DHT22;1311;47.966;7.958;2022-07-29T14:04:48;27.60;92.40
2603;DHT22;1311;47.966;7.958;2022-07-29T14:07:14;27.30;91.20
2603;DHT22;1311;47.966;7.958;2022-07-29T14:09:43;27.30;91.80
2603;DHT22;1311;47.966;7.958;2022-07-29T14:12:09;27.30;91.80
2603;DHT22;1311;47.966;7.958;2022-07-29T14:14:37;27.10;91.90
2603;DHT22;1311;47.966;7.958;2022-07-29T14:19:31;27.30;92.30
2603;DHT22;1311;47.966;7.958;2022-07-29T14:22:02;27.10;92.30
2603;DHT22;1311;47.966;7.958;2022-07-29T14:24:29;27.10;92.90
2603;DHT22;1311;47.966;7.958;2022-07-29T14:26:57;27.00;93.30
2603;DHT22;1311;47.966;7.958;2022-07-29T14:29:24;26.90;94.00
2603;DHT22;1311;47.966;7.958;2022-07-29T14:34:18;26.80;93.40
2603;DHT22;1311;47.966;7.958;2022-07-29T14:36:45;26.90;93.70
2603;DHT22;1311;47.966;7.958;2022-07-29T14:41:41;26.90;92.70
2603;DHT22;1311;47.966;7.958;2022-07-29T14:44:09;26.90;93.00
2603;DHT22;1311;47.966;7.958;2022-07-29T14:46:36;26.90;93.40
2603;DHT22;1311;47.966;7.958;2022-07-29T14:49:03;26.90;93.00
2603;DHT22;1311;47.966;7.958;2022-07-29T14:51:30;26.80;92.60
2603;DHT22;1311;47.966;7.958;2022-07-29T14:56:24;26.80;91.90
2603;DHT22;1311;47.966;7.958;2022-07-29T15:01:21;26.80;92.30
2603;DHT22;1311;47.966;7.958;2022-07-29T15:03:48;26.90;92.40
2603;DHT22;1311;47.966;7.958;2022-07-29T15:06:15;26.90;92.00
2603;DHT22;1311;47.966;7.958;2022-07-29T15:08:42;27.00;91.70
2603;DHT22;1311;47.966;7.958;2022-07-29T15:11:09;26.70;90.70
2603;DHT22;1311;47.966;7.958;2022-07-29T15:13:36;26.80;91.20
2603;DHT22;1311;47.966;7.958;2022-07-29T15:16:04;26.80;90.70
2603;DHT22;1311;47.966;7.958;2022-07-29T15:18:32;27.00;91.00
2603;DHT22;1311;47.966;7.958;2022-07-29T15:23:29;27.10;90.30
2603;DHT22;1311;47.966;7.958;2022-07-29T15:25:55;27.10;90.10
2603;DHT22;1311;47.966;7.958;2022-07-29T15:28:22;27.00;89.60
2603;DHT22;1311;47.966;7.958;2022-07-29T15:30:49;27.00;90.00
2603;DHT22;1311;47.966;7.958;2022-07-29T15:33:16;27.10;90.10
2603;DHT22;1311;47.966;7.958;2022-07-29T15:35:44;27.10;90.00
2603;DHT22;1311;47.966;7.958;2022-07-29T15:38:11;27.10;90.00
2603;DHT22;1311;47.966;7.958;2022-07-29T15:40:38;27.10;87.70
2603;DHT22;1311;47.966;7.958;2022-07-29T15:45:37;27.00;86.40
2603;DHT22;1311;47.966;7.958;2022-07-29T15:48:04;26.90;85.70
2603;DHT22;1311;47.966;7.958;2022-07-29T15:50:32;27.00;85.10
2603;DHT22;1311;47.966;7.958;2022-07-29T15:53:00;27.10;85.00
2603;DHT22;1311;47.966;7.958;2022-07-29T15:57:54;27.20;83.90
2603;DHT22;1311;47.966;7.958;2022-07-29T16:02:48;27.20;82.10
2603;DHT22;1311;47.966;7.958;2022-07-29T16:05:18;27.10;83.30
2603;DHT22;1311;47.966;7.958;2022-07-29T16:07:45;27.20;83.50
2603;DHT22;1311;47.966;7.958;2022-07-29T16:10:13;27.20;84.40
2603;DHT22;1311;47.966;7.958;2022-07-29T16:12:40;27.30;84.50
2603;DHT22;1311;47.966;7.958;2022-07-29T16:15:07;27.30;83.50
2603;DHT22;1311;47.966;7.958;2022-07-29T16:17:35;27.30;84.90
2603;DHT22;1311;47.966;7.958;2022-07-29T16:20:04;27.30;85.50
2603;DHT22;1311;47.966;7.958;2022-07-29T16:22:33;27.40;84.50
2603;DHT22;1311;47.966;7.958;2022-07-29T16:25:00;27.40;83.00
2603;DHT22;1311;47.966;7.958;2022-07-29T16:27:30;27.40;79.60
2603;DHT22;1311;47.966;7.958;2022-07-29T16:29:57;27.40;79.50
2603;DHT22;1311;47.966;7.958;2022-07-29T16:32:24;27.40;78.80
2603;DHT22;1311;47.966;7.958;2022-07-29T16:34:52;27.50;80.30
2603;DHT22;1311;47.966;7.958;2022-07-29T16:37:22;27.60;78.90
2603;DHT22;1311;47.966;7.958;2022-07-29T16:39:48;27.60;76.20
2603;DHT22;1311;47.966;7.958;2022-07-29T16:42:15;27.50;73.90
2603;DHT22;1311;47.966;7.958;2022-07-29T16:44:44;27.40;73.80
2603;DHT22;1311;47.966;7.958;2022-07-29T16:47:11;27.40;75.00
2603;DHT22;1311;47.966;7.958;2022-07-29T16:49:38;27.30;73.10
2603;DHT22;1311;47.966;7.958;2022-07-29T16:52:05;27.20;73.20
2603;DHT22;1311;47.966;7.958;2022-07-29T16:54:33;27.10;72.60
2603;DHT22;1311;47.966;7.958;2022-07-29T16:57:00;27.10;73.20
2603;DHT22;1311;47.966;7.958;2022-07-29T16:59:29;27.10;73.40
2603;DHT22;1311;47.966;7.958;2022-07-29T17:01:57;27.00;73.60
2603;DHT22;1311;47.966;7.958;2022-07-29T17:04:27;26.90;74.20
2603;DHT22;1311;47.966;7.958;2022-07-29T17:06:53;26.80;76.80
2603;DHT22;1311;47.966;7.958;2022-07-29T17:09:23;26.80;78.90
2603;DHT22;1311;47.966;7.958;2022-07-29T17:11:50;26.70;80.00
2603;DHT22;1311;47.966;7.958;2022-07-29T17:14:19;26.60;80.70
2603;DHT22;1311;47.966;7.958;2022-07-29T17:16:46;26.60;80.40
2603;DHT22;1311;47.966;7.958;2022-07-29T17:19:23;26.50;81.30
2603;DHT22;1311;47.966;7.958;2022-07-29T17:21:52;26.40;78.10
2603;DHT22;1311;47.966;7.958;2022-07-29T17:24:21;26.30;75.70
2603;DHT22;1311;47.966;7.958;2022-07-29T17:27:00;26.20;76.10
2603;DHT22;1311;47.966;7.958;2022-07-29T17:29:27;26.00;74.90
2603;DHT22;1311;47.966;7.958;2022-07-29T17:31:57;26.00;75.50
2603;DHT22;1311;47.966;7.958;2022-07-29T17:34:26;25.90;75.20
2603;DHT22;1311;47.966;7.958;2022-07-29T17:36:53;25.70;72.70
2603;DHT22;1311;47.966;7.958;2022-07-29T17:39:20;25.70;73.50
2603;DHT22;1311;47.966;7.958;2022-07-29T17:41:47;25.60;78.30
2603;DHT22;1311;47.966;7.958;2022-07-29T17:44:14;25.50;80.90
2603;DHT22;1311;47.966;7.958;2022-07-29T17:46:41;25.50;81.50
2603;DHT22;1311;47.966;7.958;2022-07-29T17:49:07;25.40;83.30
2603;DHT22;1311;47.966;7.958;2022-07-29T17:51:36;25.40;84.30
2603;DHT22;1311;47.966;7.958;2022-07-29T17:54:03;25.20;84.50
2603;DHT22;1311;47.966;7.958;2022-07-29T17:56:30;25.10;84.90
2603;DHT22;1311;47.966;7.958;2022-07-29T17:58:57;25.10;85.90
2603;DHT22;1311;47.966;7.958;2022-07-29T18:01:25;25.00;85.20
2603;DHT22;1311;47.966;7.958;2022-07-29T18:03:53;25.00;85.80
2603;DHT22;1311;47.966;7.958;2022-07-29T18:06:20;24.90;86.80
2603;DHT22;1311;47.966;7.958;2022-07-29T18:08:49;24.70;86.40
2603;DHT22;1311;47.966;7.958;2022-07-29T18:11:15;24.60;85.90